Weather at Motatan II Heliport

Public forecast

Using degrees Celsius for public forecast. Weather courtesy of forecast.io.

Closest aviation weather report (METAR) to Motatan II Heliport

Report is more than 6 hours old.

Closest report is La Chinita International Airport, 78.2 nm (144.8 km) NW.

2024/05/24 22:00 (retrieved 7 hours ago)

SVMC 242200Z /////KT 9999 BKN013 30/26 Q1007

Closest aviation forecast (TAF) to Motatan II Heliport

Forecast is more than 6 hours old.

Closest forecast is La Chinita International Airport, 78.2 nm (144.8 km) NW.

2024/05/24 18:15 (retrieved 11 hours ago)

TAF SVMC 241600Z 2418/2518 15008KT 9999 SCT013 BKN100 TX34/2419Z TN22/2508Z TEMPO 2420/2422 17008KT 9000 -DZ BKN013